Jacksonville, FL

4:11 PM EDT on August 28, 2015 (GMT -0400)
San Mateo | | Change Station
CLOSE
Current Station
Personal Weather Station
Location: Jacksonville, FL
Elevation: 49 ft
Nearby Weather Stations

Elev 49 ft 30.44 °N, 81.64 °W | Updated 11 minutes ago

Mostly Cloudy
Mostly Cloudy
88.5 °F
Feels Like 100 °F
N
4.3
Wind Variable Wind from NNE

Today
High -- | Low -- °F
--% Chance of Precip.
Yesterday
High -- | Low -- °F
Precip. -- in
7:01 AM 7:54 PM
Waxing Gibbous, 99% visible
Pressure 30.04 in
Visibility 10.0 miles
Clouds Few 1000 ft
Mostly Cloudy 3000 ft
Mostly Cloudy 6000 ft
Mostly Cloudy 25000 ft
Heat Index 100 °F
Dew Point 76 °F
Humidity 67%
Rainfall 0.00 in
Snow Depth Not available.
UV 5 out of 12
Pollen 6.10 out of 12
Air Quality Not available.
Flu Activity Not available.
METAR KJAX 281956Z 35016KT 10SM FEW010 BKN030 BKN060 BKN250 25/21 A3004 RMK AO2 WSHFT 1914 SLP171 T02500211
Pressure 30.04 in
Visibility 10.0 miles
Clouds Few 1000 ft
Mostly Cloudy 3000 ft
Mostly Cloudy 6000 ft
Mostly Cloudy 25000 ft
Heat Index 100 °F
Dew Point 76 °F
Humidity 67%
Rainfall 0.00 in
Snow Depth Not available.
UV 5 out of 12
Pollen 6.10 out of 12
Air Quality Not available.
Flu Activity Not available.
METAR KJAX 281956Z 35016KT 10SM FEW010 BKN030 BKN060 BKN250 25/21 A3004 RMK AO2 WSHFT 1914 SLP171 T02500211
Erika has become very unorganized in the face of strong wind shear in the eastern Caribbean Sea. The storm will pass directly over mountainous Hispaniola today, likely weakening it further. If the storm remains intact, it could reach an area favorable for strengthening before moving onto Florida by early next week. Follow the live blog

10-Day Weather Forecast

×

Almanac

Astronomy

Aug. 28, 2015 Rise Set
Actual Time
Civil Twilight
Nautical Twilight
Astronomical Twilight
Moon
Length of Visible Light
Length of Day
Tomorrow will be .
, % of the Moon is Illuminated

Today's Extremes

State Highs State Lows

Community

WunderPhotos

Upload Photos

1,850,468 photos uploaded!

WunderBlogs® & News

Nearby

Air Quality

  Air Quality AQ Index Pollutant
Not available.

Snow Depth

Station Depth Elevation

Earthquake Activity

City Distance Mag. Time & Date
Minimum magnitude displayed is 2.5.

Coastal Water Temperatures

Place Temperature

Stations

Nearby Weather Stations

Station Location Temp. Windchill Dew Point Humidity Wind Precip. Elev Updated Type